Time;durP1;ratioP1;P1;durP2;ratioP2;P2;SDS_P1;SDS_P2;PMS_P1;PMS_P2;Temp;Humidity;BMP_temperature;BMP_pressure;BME280_temperature;BME280_humidity;BME280_pressure;Samples;Min_cycle;Max_cycle;Signal;HPM_P1;HPM_P2
2021/11/04 00:01:30;;;;;;;77.33;30.17;;;;;;;5.61;100.00;100581.75;5131189;27;20022;-80
2021/11/04 00:03:55;;;;;;;66.85;28.63;;;;;;;5.57;100.00;100575.06;5131268;27;20273;-80
2021/11/04 00:06:21;;;;;;;70.90;29.15;;;;;;;5.56;100.00;100576.03;5131088;27;20027;-79
2021/11/04 00:08:47;;;;;;;81.43;32.40;;;;;;;5.53;100.00;100566.56;5131145;27;20463;-79
2021/11/04 00:11:12;;;;;;;72.65;28.55;;;;;;;5.46;100.00;100553.00;5149155;27;20037;-79
2021/11/04 00:13:38;;;;;;;74.95;29.05;;;;;;;5.49;100.00;100550.06;5130739;27;20062;-79
2021/11/04 00:16:08;;;;;;;64.80;27.80;;;;;;;5.54;100.00;100559.44;5114100;27;20357;-79
2021/11/04 00:18:34;;;;;;;64.53;25.63;;;;;;;5.54;100.00;100567.38;5130777;27;20155;-78
2021/11/04 00:21:00;;;;;;;66.38;27.73;;;;;;;5.54;100.00;100570.03;5130970;27;20022;-79
2021/11/04 00:23:26;;;;;;;70.47;30.08;;;;;;;5.57;100.00;100567.09;5148714;27;20400;-79
2021/11/04 00:25:51;;;;;;;69.70;28.50;;;;;;;5.50;100.00;100551.78;5130801;27;20122;-78
2021/11/04 00:28:17;;;;;;;76.47;27.37;;;;;;;5.58;100.00;100555.56;5149284;27;20043;-79
2021/11/04 00:30:44;;;;;;;79.55;30.50;;;;;;;5.57;100.00;100567.97;5130478;27;20299;-80
2021/11/04 00:33:09;;;;;;;69.97;29.40;;;;;;;5.59;100.00;100567.81;5148554;27;20042;-79
2021/11/04 00:35:35;;;;;;;103.13;37.00;;;;;;;5.67;100.00;100589.19;5130696;27;20043;-79
2021/11/04 00:38:02;;;;;;;80.75;29.58;;;;;;;5.63;100.00;100571.88;5148975;27;21163;-79
2021/11/04 00:40:27;;;;;;;69.50;28.40;;;;;;;5.68;100.00;100564.34;5113505;27;20057;-79
2021/11/04 00:42:53;;;;;;;74.57;28.20;;;;;;;5.73;100.00;100580.69;5148718;27;20038;-79
2021/11/04 00:45:18;;;;;;;67.90;28.30;;;;;;;5.74;100.00;100573.59;5148313;27;20034;-79
2021/11/04 00:47:44;;;;;;;79.85;32.00;;;;;;;5.78;100.00;100582.91;5130417;27;20019;-79
2021/11/04 00:50:10;;;;;;;82.85;31.30;;;;;;;5.66;100.00;100553.06;5148594;27;20038;-79
2021/11/04 00:52:35;;;;;;;77.32;33.55;;;;;;;5.84;100.00;100582.38;5130627;27;20038;-78
2021/11/04 00:55:01;;;;;;;83.40;33.03;;;;;;;5.86;100.00;100577.81;5131466;27;20532;-79
2021/11/04 00:57:26;;;;;;;73.07;31.77;;;;;;;5.88;100.00;100574.03;5132091;27;20039;-78
2021/11/04 00:59:52;;;;;;;78.37;32.30;;;;;;;6.02;100.00;100587.91;5131828;27;20046;-77
2021/11/04 01:02:17;;;;;;;82.83;33.50;;;;;;;5.98;100.00;100579.38;5149790;27;20114;-78
2021/11/04 01:04:43;;;;;;;82.83;34.90;;;;;;;5.97;100.00;100566.25;5149539;27;20034;-77
2021/11/04 01:07:08;;;;;;;85.88;32.67;;;;;;;5.93;100.00;100553.25;5131352;27;20034;-78
2021/11/04 01:09:34;;;;;;;85.95;33.33;;;;;;;5.90;100.00;100550.91;5131605;27;20035;-78
2021/11/04 01:11:59;;;;;;;93.47;32.37;;;;;;;5.94;100.00;100546.16;5149800;27;20018;-78
2021/11/04 01:14:25;;;;;;;94.00;34.70;;;;;;;5.97;100.00;100531.81;5149386;27;20041;-78
2021/11/04 01:16:50;;;;;;;87.00;33.40;;;;;;;5.96;100.00;100516.91;5131884;27;20102;-78
2021/11/04 01:19:16;;;;;;;82.60;32.70;;;;;;;5.95;100.00;100507.25;5150256;27;20039;-78
2021/11/04 01:21:42;;;;;;;77.00;32.97;;;;;;;5.91;100.00;100520.75;5149626;27;20038;-78
2021/11/04 01:24:07;;;;;;;115.40;38.63;;;;;;;5.95;100.00;100531.09;5149267;27;20042;-77
2021/11/04 01:26:34;;;;;;;98.97;33.67;;;;;;;6.00;100.00;100547.44;5141370;27;20035;-77
2021/11/04 01:28:59;;;;;;;;;;;;;;;6.01;100.00;100565.00;5134497;27;20060;-77
2021/11/04 01:31:24;;;;;;;;;;;;;;;6.01;100.00;100579.09;5134195;27;19926;-77
2021/11/04 01:33:50;;;;;;;91.77;32.17;;;;;;;6.03;100.00;100571.03;5151703;27;19915;-77
2021/11/04 01:36:15;;;;;;;85.47;32.37;;;;;;;6.02;100.00;100569.34;5133603;27;20361;-77
2021/11/04 01:38:41;;;;;;;93.50;36.47;;;;;;;5.98;100.00;100555.53;5152171;27;20744;-77
2021/11/04 01:41:06;;;;;;;101.70;34.10;;;;;;;5.97;100.00;100534.47;5133486;27;20038;-77
2021/11/04 01:43:32;;;;;;;109.45;37.28;;;;;;;5.97;100.00;100521.22;5151477;27;20057;-77
2021/11/04 01:45:57;;;;;;;97.10;34.13;;;;;;;5.93;100.00;100497.63;5133530;27;20379;-76
2021/11/04 01:48:23;;;;;;;88.20;32.03;;;;;;;5.99;100.00;100527.22;5151767;27;20039;-77
2021/11/04 01:50:49;;;;;;;75.72;30.90;;;;;;;5.99;100.00;100524.56;5133083;27;20038;-77
2021/11/04 01:53:17;;;;;;;81.50;32.95;;;;;;;6.03;100.00;100533.91;5151318;27;20060;-77
2021/11/04 01:55:43;;;;;;;76.55;29.88;;;;;;;6.03;100.00;100537.41;5152525;27;20094;-77
2021/11/04 01:58:08;;;;;;;87.93;32.47;;;;;;;6.07;100.00;100541.47;5134731;27;20463;-77
2021/11/04 02:00:34;;;;;;;89.78;33.60;;;;;;;6.05;100.00;100532.81;5153027;27;20341;-78
2021/11/04 02:03:19;;;;;;;96.32;37.00;;;;;;;6.08;100.00;100543.13;5134996;27;20031;-78
2021/11/04 02:06:13;;;;;;;86.68;34.72;;;;;;;6.06;100.00;100536.28;5153767;27;20034;-78
2021/11/04 02:09:00;;;;;;;103.60;35.85;;;;;;;6.05;100.00;100527.50;5135324;27;20042;-78
2021/11/04 02:11:59;;;;;;;100.85;36.42;;;;;;;6.02;100.00;100519.00;5134150;27;20062;-79
2021/11/04 02:14:29;;;;;;;87.68;32.35;;;;;;;6.04;100.00;100514.38;5134823;27;20042;-80
2021/11/04 02:16:59;;;;;;;83.95;33.40;;;;;;;6.01;100.00;100504.91;5134506;27;20036;-78
2021/11/04 02:19:45;;;;;;;92.75;33.50;;;;;;;6.00;100.00;100491.81;5153133;27;20498;-79
2021/11/04 02:22:19;;;;;;;79.43;30.13;;;;;;;6.05;100.00;100495.69;5134723;27;20019;-78
2021/11/04 02:25:15;;;;;;;88.28;32.13;;;;;;;6.02;100.00;100485.38;5117119;27;20391;-78
2021/11/04 02:27:52;;;;;;;91.60;33.90;;;;;;;5.98;100.00;100461.94;5151159;27;20049;-78
2021/11/04 02:30:20;;;;;;;85.35;31.77;;;;;;;6.02;100.00;100458.06;5115554;27;20045;-78
2021/11/04 02:32:46;;;;;;;77.47;29.45;;;;;;;6.00;100.00;100454.69;5151446;27;20019;-77
2021/11/04 02:35:14;;;;;;;94.60;34.55;;;;;;;6.01;100.00;100445.75;5132321;27;20171;-78
2021/11/04 02:37:40;;;;;;;156.63;39.20;;;;;;;6.00;100.00;100434.31;5132516;27;20031;-77
2021/11/04 02:40:07;;;;;;;100.93;35.42;;;;;;;5.93;100.00;100434.03;5132595;27;20628;-77
2021/11/04 02:42:35;;;;;;;86.38;33.40;;;;;;;6.01;100.00;100441.28;5150625;27;20018;-77
2021/11/04 02:45:00;;;;;;;130.15;38.15;;;;;;;6.04;100.00;100445.47;5132017;27;20039;-77
2021/11/04 02:47:26;;;;;;;88.05;32.67;;;;;;;6.03;100.00;100446.47;5132474;27;20043;-77
2021/11/04 02:49:52;;;;;;;81.55;32.35;;;;;;;6.02;100.00;100442.16;5132212;27;20129;-77
2021/11/04 02:52:17;;;;;;;101.35;35.03;;;;;;;6.04;100.00;100462.22;5132467;27;20026;-77
2021/11/04 02:54:51;;;;;;;83.13;30.60;;;;;;;6.05;100.00;100469.19;5131974;27;20109;-77
2021/11/04 02:57:17;;;;;;;95.03;32.33;;;;;;;6.06;100.00;100470.88;5151235;27;20117;-77
2021/11/04 02:59:43;;;;;;;125.75;38.85;;;;;;;6.06;100.00;100470.03;5151806;27;20191;-76
2021/11/04 03:02:08;;;;;;;99.00;35.63;;;;;;;6.10;100.00;100471.44;5133341;27;20459;-76
2021/11/04 03:04:34;;;;;;;94.83;35.00;;;;;;;6.06;100.00;100464.72;5133217;27;20023;-76
2021/11/04 03:07:01;;;;;;;91.90;32.83;;;;;;;6.12;100.00;100469.47;5150749;27;20398;-77
2021/11/04 03:09:26;;;;;;;89.03;33.03;;;;;;;6.12;100.00;100470.31;5151777;27;20038;-77
2021/11/04 03:11:52;;;;;;;85.13;32.45;;;;;;;6.19;100.00;100486.50;5133187;27;20027;-77
2021/11/04 03:14:17;;;;;;;116.93;39.53;;;;;;;6.17;100.00;100503.50;5132910;27;20039;-76
2021/11/04 03:16:45;;;;;;;88.20;33.90;;;;;;;6.15;100.00;100492.22;5151202;27;20077;-77
2021/11/04 03:19:13;;;;;;;96.40;32.83;;;;;;;6.19;100.00;100501.56;5133022;27;20033;-77
2021/11/04 03:21:41;;;;;;;117.40;38.15;;;;;;;6.17;100.00;100495.56;5151240;27;20027;-77
2021/11/04 03:24:07;;;;;;;103.53;36.92;;;;;;;6.15;100.00;100487.75;5132692;27;20091;-76
2021/11/04 03:26:36;;;;;;;86.35;32.22;;;;;;;6.25;100.00;100499.19;5150804;27;20223;-77
2021/11/04 03:29:04;;;;;;;80.93;32.78;;;;;;;6.25;100.00;100501.84;5149520;27;20073;-76
2021/11/04 03:31:31;;;;;;;129.27;39.33;;;;;;;6.20;100.00;100485.50;5131517;27;20022;-76
2021/11/04 03:33:56;;;;;;;93.53;34.03;;;;;;;6.20;100.00;100482.84;5149275;27;20095;-76
2021/11/04 03:36:22;;;;;;;83.93;32.33;;;;;;;6.25;100.00;100485.06;5131729;27;20014;-76
2021/11/04 03:38:49;;;;;;;123.22;36.67;;;;;;;6.26;100.00;100494.72;5149635;27;20107;-76
2021/11/04 03:41:18;;;;;;;92.35;33.95;;;;;;;6.19;100.00;100483.00;5149511;27;20027;-76
2021/11/04 03:43:45;;;;;;;96.95;34.28;;;;;;;6.24;100.00;100484.25;5131092;27;20095;-76
2021/11/04 03:46:10;;;;;;;92.72;34.15;;;;;;;6.28;100.00;100487.47;5131170;27;20043;-76
2021/11/04 03:48:38;;;;;;;105.80;36.83;;;;;;;6.34;100.00;100489.53;5113672;27;20037;-77
2021/11/04 03:51:04;;;;;;;91.43;35.17;;;;;;;6.29;100.00;100467.91;5149247;27;20068;-77
2021/11/04 03:53:30;;;;;;;91.15;35.33;;;;;;;6.37;100.00;100485.75;5148987;27;20030;-77
2021/11/04 03:55:56;;;;;;;93.57;33.83;;;;;;;6.37;100.00;100483.13;5131146;27;20030;-76
2021/11/04 03:58:22;;;;;;;86.70;32.25;;;;;;;6.41;100.00;100476.56;5114928;27;20073;-76
2021/11/04 04:00:47;;;;;;;106.45;35.67;;;;;;;6.39;100.00;100465.25;5132440;27;20026;-77
2021/11/04 04:03:13;;;;;;;79.13;31.83;;;;;;;6.42;100.00;100465.81;5132379;27;20026;-77
2021/11/04 04:05:39;;;;;;;88.28;33.03;;;;;;;6.45;100.00;100473.47;5132164;27;20035;-77
2021/11/04 04:08:04;;;;;;;91.63;33.27;;;;;;;6.45;100.00;100454.91;5149875;27;20524;-76
2021/11/04 04:10:32;;;;;;;85.93;32.33;;;;;;;6.53;100.00;100454.19;5132081;27;20679;-76
2021/11/04 04:12:59;;;;;;;75.00;29.80;;;;;;;6.46;100.00;100442.47;5132197;27;20039;-76
2021/11/04 04:15:25;;;;;;;76.80;28.83;;;;;;;6.43;100.00;100430.34;5114773;27;20037;-77
2021/11/04 04:17:51;;;;;;;72.32;27.65;;;;;;;6.41;100.00;100458.00;5131644;27;20175;-76
2021/11/04 04:20:16;;;;;;;66.90;27.40;;;;;;;6.40;100.00;100473.06;5132143;27;20534;-76
2021/11/04 04:22:42;;;;;;;77.03;28.60;;;;;;;6.38;100.00;100484.81;5150133;27;20459;-76
2021/11/04 04:25:07;;;;;;;66.22;29.30;;;;;;;6.33;100.00;100483.41;5149908;27;20023;-76
2021/11/04 04:27:33;;;;;;;72.38;28.83;;;;;;;6.37;100.00;100491.06;5131451;27;20102;-76
2021/11/04 04:30:00;;;;;;;69.13;26.20;;;;;;;6.36;100.00;100486.75;5148837;27;20030;-76
2021/11/04 04:32:26;;;;;;;54.43;24.27;;;;;;;6.34;100.00;100484.22;5113341;27;20038;-77
2021/11/04 04:34:51;;;;;;;55.57;23.83;;;;;;;6.34;100.00;100493.06;5113403;27;20264;-76
2021/11/04 04:37:16;;;;;;;59.07;23.90;;;;;;;6.36;100.00;100486.75;5149017;27;20065;-76
2021/11/04 04:39:41;;;;;;;62.67;24.17;;;;;;;6.29;100.00;100460.78;5130537;27;20042;-76
2021/11/04 04:42:08;;;;;;;66.90;26.07;;;;;;;6.34;100.00;100453.28;5130543;27;20026;-76
2021/11/04 04:44:33;;;;;;;;;;;;;;;6.33;100.00;100440.97;5130543;27;20035;-77
2021/11/04 04:46:59;;;;;;;;;;;;;;;6.31;100.00;100427.03;5149006;27;19922;-77
2021/11/04 04:49:24;;;;;;;57.80;21.40;;;;;;;6.25;100.00;100398.44;5130165;27;19911;-77
2021/11/04 04:51:51;;;;;;;63.28;22.08;;;;;;;6.24;100.00;100394.13;5130204;27;20043;-76
2021/11/04 04:54:17;;;;;;;61.55;23.23;;;;;;;6.23;100.00;100391.63;5130053;27;20491;-76
2021/11/04 04:56:43;;;;;;;57.47;24.27;;;;;;;6.23;100.00;100396.94;5129766;27;20026;-76
2021/11/04 04:59:08;;;;;;;57.38;23.35;;;;;;;6.25;100.00;100395.81;5131608;27;20034;-76
2021/11/04 05:01:34;;;;;;;54.88;22.00;;;;;;;6.28;100.00;100400.81;5153240;27;20034;-77
2021/11/04 05:03:59;;;;;;;57.20;22.90;;;;;;;6.27;100.00;100401.75;5153861;27;20023;-75
2021/11/04 05:06:25;;;;;;;51.23;22.63;;;;;;;6.31;100.00;100400.50;5135181;27;20038;-76
2021/11/04 05:08:50;;;;;;;64.93;24.88;;;;;;;6.36;100.00;100397.44;5154049;27;20059;-76
2021/11/04 05:11:16;;;;;;;62.57;25.43;;;;;;;6.33;100.00;100385.28;5118467;27;20047;-75
2021/11/04 05:13:41;;;;;;;65.53;24.85;;;;;;;6.29;100.00;100368.00;5153525;27;20272;-75
2021/11/04 05:16:07;;;;;;;69.70;27.00;;;;;;;6.25;100.00;100374.59;5153612;27;20034;-75
2021/11/04 05:18:32;;;;;;;65.53;25.27;;;;;;;6.32;100.00;100398.69;5135275;27;20034;-75
2021/11/04 05:20:58;;;;;;;64.10;25.55;;;;;;;6.30;100.00;100404.16;5124317;27;20031;-75
2021/11/04 05:23:23;;;;;;;61.63;26.30;;;;;;;6.28;100.00;100392.03;5135421;27;20034;-76
2021/11/04 05:25:48;;;;;;;58.90;23.90;;;;;;;6.26;100.00;100397.47;5135273;27;20083;-76
2021/11/04 05:28:14;;;;;;;65.20;24.43;;;;;;;6.29;100.00;100402.47;5153328;27;20082;-76
2021/11/04 05:30:41;;;;;;;61.77;24.80;;;;;;;6.31;100.00;100416.41;5134872;27;20060;-76
2021/11/04 05:33:06;;;;;;;66.47;26.45;;;;;;;6.29;100.00;100412.25;5134684;27;20031;-76
2021/11/04 05:35:32;;;;;;;52.03;24.10;;;;;;;6.30;100.00;100425.38;5134637;27;20366;-76
2021/11/04 05:37:57;;;;;;;57.87;21.90;;;;;;;6.28;100.00;100416.72;5117845;27;20026;-76
2021/11/04 05:40:22;;;;;;;59.20;23.13;;;;;;;6.33;100.00;100414.47;5153429;27;20264;-75
2021/11/04 05:42:49;;;;;;;57.03;24.10;;;;;;;6.32;100.00;100418.09;5117944;27;20026;-76
2021/11/04 05:45:15;;;;;;;56.00;23.13;;;;;;;6.29;100.00;100422.84;5152880;27;20045;-76
2021/11/04 05:47:41;;;;;;;55.53;23.45;;;;;;;6.29;100.00;100417.53;5135020;27;20039;-76
2021/11/04 05:50:07;;;;;;;66.93;23.60;;;;;;;6.31;100.00;100426.19;5117643;27;20471;-76
2021/11/04 05:52:32;;;;;;;57.88;23.23;;;;;;;6.30;100.00;100428.00;5153241;27;20034;-76
2021/11/04 05:54:58;;;;;;;58.23;23.70;;;;;;;6.38;100.00;100429.13;5152908;27;20079;-76
2021/11/04 05:57:23;;;;;;;67.83;25.00;;;;;;;6.35;100.00;100419.63;5134809;27;20711;-77
2021/11/04 05:59:49;;;;;;;71.95;25.58;;;;;;;6.32;100.00;100420.75;5152933;27;20052;-75
2021/11/04 06:02:15;;;;;;;67.00;25.70;;;;;;;6.29;100.00;100430.78;5117533;27;20023;-76
2021/11/04 06:04:44;;;;;;;67.57;25.83;;;;;;;6.28;100.00;100445.88;5134441;27;20810;-76
2021/11/04 06:07:11;;;;;;;57.70;23.92;;;;;;;6.36;100.00;100460.25;5152280;27;20038;-76
2021/11/04 06:09:37;;;;;;;68.80;26.90;;;;;;;6.37;100.00;100460.09;5152777;27;20026;-76
2021/11/04 06:12:03;;;;;;;64.10;25.67;;;;;;;6.31;100.00;100458.00;5134212;27;20045;-76
2021/11/04 06:14:28;;;;;;;70.40;26.85;;;;;;;6.39;100.00;100479.38;5134323;27;20019;-75
2021/11/04 06:16:54;;;;;;;60.47;24.27;;;;;;;6.36;100.00;100476.97;5152777;27;20038;-75
2021/11/04 06:19:20;;;;;;;61.93;24.23;;;;;;;6.39;100.00;100483.81;5134357;27;20305;-76
2021/11/04 06:21:45;;;;;;;58.58;24.48;;;;;;;6.36;100.00;100484.09;5134175;27;20055;-76
2021/11/04 06:24:11;;;;;;;67.57;28.58;;;;;;;6.43;100.00;100499.28;5152145;27;20042;-75
2021/11/04 06:26:37;;;;;;;75.65;27.23;;;;;;;6.42;100.00;100491.50;5134329;27;20046;-75
2021/11/04 06:29:03;;;;;;;82.53;27.85;;;;;;;6.39;100.00;100495.28;5134074;27;20244;-75
2021/11/04 06:31:28;;;;;;;57.87;24.63;;;;;;;6.40;100.00;100504.06;5133921;27;20035;-75
2021/11/04 06:33:54;;;;;;;68.47;25.90;;;;;;;6.39;100.00;100503.22;5151497;27;20051;-75
2021/11/04 06:36:19;;;;;;;64.33;26.83;;;;;;;6.47;100.00;100526.38;5115652;27;20087;-76
2021/11/04 06:38:45;;;;;;;70.13;25.87;;;;;;;6.45;100.00;100517.72;5132536;27;20426;-75
2021/11/04 06:41:10;;;;;;;67.10;25.90;;;;;;;6.46;100.00;100530.00;5132643;27;20031;-76
2021/11/04 06:43:36;;;;;;;62.10;24.60;;;;;;;6.46;100.00;100522.91;5132226;27;20042;-76
2021/11/04 06:46:02;;;;;;;70.53;28.30;;;;;;;6.49;100.00;100530.56;5150859;27;20054;-76
2021/11/04 06:48:42;;;;;;;65.93;26.83;;;;;;;6.49;100.00;100530.56;5133681;27;20060;-76
2021/11/04 06:51:09;;;;;;;72.22;27.30;;;;;;;6.53;100.00;100542.56;5133279;27;20425;-75
2021/11/04 06:53:41;;;;;;;70.55;27.92;;;;;;;6.55;100.00;100534.47;5116311;27;20147;-76
2021/11/04 06:56:08;;;;;;;72.10;28.50;;;;;;;6.57;100.00;100563.50;5132693;27;20463;-75
2021/11/04 06:58:36;;;;;;;87.70;29.23;;;;;;;6.55;100.00;100550.38;5115621;27;20313;-76
2021/11/04 07:01:08;;;;;;;67.63;25.80;;;;;;;6.55;100.00;100551.22;5132193;27;20031;-76
2021/11/04 07:03:41;;;;;;;68.55;28.08;;;;;;;6.59;100.00;100556.25;5150157;27;20035;-76
2021/11/04 07:06:08;;;;;;;66.95;27.23;;;;;;;6.62;100.00;100551.47;5114130;27;20087;-76
2021/11/04 07:08:48;;;;;;;71.15;26.20;;;;;;;6.56;100.00;100544.09;5131815;27;20049;-76
2021/11/04 07:11:15;;;;;;;75.63;26.55;;;;;;;6.58;100.00;100550.13;5150177;27;20062;-75
2021/11/04 07:13:40;;;;;;;67.63;24.58;;;;;;;6.59;100.00;100546.47;5131624;27;20034;-76
2021/11/04 07:16:06;;;;;;;81.90;26.07;;;;;;;6.60;100.00;100545.47;5150536;27;20031;-75
2021/11/04 07:18:31;;;;;;;76.47;26.08;;;;;;;6.61;100.00;100536.56;5131830;27;20417;-75
2021/11/04 07:21:03;;;;;;;65.97;25.53;;;;;;;6.64;100.00;100538.91;5149927;27;20455;-75
2021/11/04 07:23:43;;;;;;;69.70;26.17;;;;;;;6.65;100.00;100529.13;5149068;27;20026;-75
2021/11/04 07:26:08;;;;;;;70.63;25.40;;;;;;;6.65;100.00;100524.69;5131765;27;20061;-75
2021/11/04 07:28:38;;;;;;;76.33;27.30;;;;;;;6.64;100.00;100523.00;5114582;27;20459;-75
2021/11/04 07:31:07;;;;;;;66.15;24.52;;;;;;;6.67;100.00;100517.44;5131384;27;20041;-75
2021/11/04 07:33:33;;;;;;;68.53;26.55;;;;;;;6.75;100.00;100524.66;5114242;27;20372;-75
2021/11/04 07:36:01;;;;;;;65.93;24.52;;;;;;;6.75;100.00;100524.66;5149828;27;20030;-75
2021/11/04 07:38:27;;;;;;;69.22;25.17;;;;;;;6.72;100.00;100507.22;5131647;27;20034;-75
2021/11/04 07:40:52;;;;;;;73.40;25.13;;;;;;;6.74;100.00;100512.34;5149695;27;20026;-76
2021/11/04 07:43:18;;;;;;;68.77;25.27;;;;;;;6.79;100.00;100506.63;5131130;27;20022;-75
2021/11/04 07:45:44;;;;;;;65.18;24.10;;;;;;;6.76;100.00;100497.13;5113991;27;20027;-75
2021/11/04 07:48:10;;;;;;;69.40;23.40;;;;;;;6.83;100.00;100511.50;5112943;27;20040;-75
2021/11/04 07:50:36;;;;;;;68.93;25.20;;;;;;;6.82;100.00;100506.34;5149219;27;20038;-75
2021/11/04 07:53:02;;;;;;;55.97;23.17;;;;;;;6.82;100.00;100509.00;5131104;27;20455;-75
2021/11/04 07:55:28;;;;;;;59.92;21.80;;;;;;;6.81;100.00;100502.84;5131000;27;20459;-74
2021/11/04 07:57:53;;;;;;;61.72;22.95;;;;;;;6.86;100.00;100500.63;5131107;27;20034;-76
2021/11/04 08:00:22;;;;;;;65.27;23.13;;;;;;;6.82;100.00;100491.25;5131078;27;20118;-76
2021/11/04 08:02:48;;;;;;;54.67;23.52;;;;;;;6.88;100.00;100493.34;5113995;27;20058;-76
2021/11/04 08:05:16;;;;;;;52.50;21.50;;;;;;;6.85;100.00;100474.22;5130664;27;20129;-76
2021/11/04 08:07:42;;;;;;;62.03;22.88;;;;;;;6.88;100.00;100471.25;5113081;27;20038;-76
2021/11/04 08:10:10;;;;;;;50.70;18.52;;;;;;;6.86;100.00;100465.25;5149104;27;20040;-76
2021/11/04 08:12:36;;;;;;;51.67;20.50;;;;;;;6.82;100.00;100456.78;5130739;27;20463;-82
2021/11/04 08:15:07;;;;;;;46.63;19.30;;;;;;;6.92;100.00;100464.69;5130445;27;20026;-77
2021/11/04 08:17:33;;;;;;;46.40;18.25;;;;;;;6.93;100.00;100464.56;5148947;27;20063;-76
2021/11/04 08:19:59;;;;;;;63.00;23.17;;;;;;;6.97;100.00;100465.91;5130801;27;20026;-76
2021/11/04 08:22:24;;;;;;;47.00;20.67;;;;;;;7.06;100.00;100474.00;5149290;27;20026;-76
2021/11/04 08:24:50;;;;;;;54.13;19.97;;;;;;;7.05;100.00;100459.91;5113428;27;20062;-76
2021/11/04 08:27:18;;;;;;;47.92;18.17;;;;;;;7.00;100.00;100434.75;5148879;27;20034;-76
2021/11/04 08:29:43;;;;;;;43.75;18.58;;;;;;;7.00;100.00;100418.81;5148967;27;20046;-76
2021/11/04 08:32:11;;;;;;;43.13;18.13;;;;;;;7.07;100.00;100412.81;5130441;27;20030;-76
2021/11/04 08:34:40;;;;;;;40.30;16.02;;;;;;;7.12;100.00;100405.22;5130055;27;20034;-77
2021/11/04 08:37:06;;;;;;;41.33;16.50;;;;;;;7.15;100.00;100388.16;5130544;27;20582;-76
2021/11/04 08:39:32;;;;;;;48.50;18.63;;;;;;;7.22;100.00;100378.63;5130388;27;20402;-76
2021/11/04 08:41:58;;;;;;;42.20;16.55;;;;;;;7.19;100.00;100366.47;5148859;27;20430;-77
2021/11/04 08:44:24;;;;;;;33.42;16.08;;;;;;;7.14;100.00;100352.81;5130161;27;20046;-76
2021/11/04 08:46:50;;;;;;;47.17;17.75;;;;;;;7.16;100.00;100342.03;5148890;27;20406;-76
2021/11/04 08:49:16;;;;;;;33.50;15.48;;;;;;;7.19;100.00;100331.13;5130653;27;20117;-78
2021/11/04 08:51:42;;;;;;;40.65;17.35;;;;;;;7.19;100.00;100328.47;5130083;27;20039;-77
2021/11/04 08:54:08;;;;;;;;;;;;;;;7.16;100.00;100316.34;5130423;27;20030;-76
2021/11/04 08:56:34;;;;;;;;;;;;;;;7.20;100.00;100311.53;5130804;27;20341;-76
2021/11/04 08:59:00;;;;;;;35.70;16.63;;;;;;;7.24;100.00;100320.06;5130412;27;19915;-76
2021/11/04 09:01:25;;;;;;;39.67;17.20;;;;;;;7.12;100.00;100299.03;5130295;27;20035;-76
2021/11/04 09:03:51;;;;;;;38.25;15.07;;;;;;;7.21;100.00;100307.06;5129945;27;20078;-76
2021/11/04 09:06:16;;;;;;;33.17;14.90;;;;;;;7.24;100.00;100306.78;5147846;27;20035;-76
2021/11/04 09:08:42;;;;;;;40.27;17.97;;;;;;;7.30;100.00;100325.56;5130029;27;20371;-76
2021/11/04 09:11:07;;;;;;;35.07;16.43;;;;;;;7.34;100.00;100340.22;5130296;27;20035;-77
2021/11/04 09:13:33;;;;;;;34.23;14.60;;;;;;;7.34;100.00;100340.22;5129775;27;20031;-77
2021/11/04 09:15:59;;;;;;;34.30;14.95;;;;;;;7.36;100.00;100342.75;5148285;27;20039;-76
2021/11/04 09:18:24;;;;;;;34.27;15.13;;;;;;;7.34;100.00;100332.25;5130050;27;20033;-77
2021/11/04 09:20:49;;;;;;;39.07;16.57;;;;;;;7.40;100.00;100329.00;5129984;27;20284;-77
2021/11/04 09:23:15;;;;;;;33.30;17.30;;;;;;;7.41;100.00;100319.22;5148094;27;20757;-78
2021/11/04 09:25:40;;;;;;;35.53;16.07;;;;;;;7.45;100.00;100320.59;5148422;27;20095;-76
2021/11/04 09:28:06;;;;;;;37.85;15.18;;;;;;;7.39;100.00;100310.56;5129594;27;20045;-76
2021/11/04 09:30:32;;;;;;;30.20;14.70;;;;;;;7.50;100.00;100315.63;5113170;27;20023;-77
2021/11/04 09:32:57;;;;;;;31.10;14.48;;;;;;;7.44;100.00;100300.31;5146582;27;20375;-76
2021/11/04 09:35:24;;;;;;;33.57;15.60;;;;;;;7.44;100.00;100291.50;5147408;27;20070;-77
2021/11/04 09:37:50;;;;;;;32.40;14.98;;;;;;;7.44;100.00;100281.72;5129545;27;20060;-76
2021/11/04 09:40:17;;;;;;;30.50;14.35;;;;;;;7.40;100.00;100272.41;5147830;27;20038;-76
2021/11/04 09:42:46;;;;;;;35.17;14.27;;;;;;;7.45;100.00;100278.09;5129843;27;20031;-76
2021/11/04 09:45:12;;;;;;;29.38;13.90;;;;;;;7.38;100.00;100275.22;5129240;27;20050;-76
2021/11/04 09:47:37;;;;;;;30.63;14.38;;;;;;;7.53;100.00;100286.09;5151236;27;20072;-76
2021/11/04 09:50:13;;;;;;;33.10;14.20;;;;;;;7.52;100.00;100271.16;5151648;27;20034;-76
2021/11/04 09:52:40;;;;;;;33.90;14.53;;;;;;;7.55;100.00;100270.03;5116456;27;20050;-76
2021/11/04 09:55:08;;;;;;;28.58;13.20;;;;;;;7.50;100.00;100246.56;5133170;27;20539;-75
2021/11/04 09:57:34;;;;;;;30.42;14.05;;;;;;;7.55;100.00;100238.97;5151890;27;20467;-76
2021/11/04 10:00:00;;;;;;;32.13;15.02;;;;;;;7.64;100.00;100239.03;5151501;27;20070;-76
2021/11/04 10:02:27;;;;;;;31.23;13.20;;;;;;;7.70;100.00;100230.44;5151549;27;20102;-76
2021/11/04 10:05:02;;;;;;;25.88;12.25;;;;;;;7.72;100.00;100215.16;5151254;27;20039;-76
2021/11/04 10:07:43;;;;;;;23.40;11.02;;;;;;;7.80;100.00;100208.09;5151184;27;20031;-76
2021/11/04 10:10:10;;;;;;;29.23;12.98;;;;;;;7.75;100.00;100188.28;5151368;27;20109;-76
2021/11/04 10:12:36;;;;;;;32.78;13.65;;;;;;;7.84;100.00;100176.69;5133247;27;20038;-76
2021/11/04 10:15:13;;;;;;;31.15;12.98;;;;;;;7.74;100.00;100149.41;5151106;27;20026;-75
2021/11/04 10:17:38;;;;;;;25.10;11.57;;;;;;;7.77;100.00;100146.44;5151249;27;20026;-76
2021/11/04 10:20:22;;;;;;;27.17;13.30;;;;;;;7.90;100.00;100152.16;5151158;27;20030;-76
2021/11/04 10:23:06;;;;;;;34.95;15.57;;;;;;;7.74;100.00;100130.81;5132791;27;20175;-75
2021/11/04 10:25:32;;;;;;;27.73;12.52;;;;;;;7.93;100.00;100132.38;5150919;27;20035;-75
2021/11/04 10:28:19;;;;;;;33.63;14.45;;;;;;;8.01;100.00;100132.44;5132757;27;20030;-76
2021/11/04 10:30:45;;;;;;;30.00;13.50;;;;;;;8.11;100.00;100129.63;5151234;27;20026;-76
2021/11/04 10:33:25;;;;;;;33.07;14.43;;;;;;;8.14;100.00;100124.81;5132688;27;20441;-76
2021/11/04 10:35:59;;;;;;;32.45;14.30;;;;;;;8.03;100.00;100104.69;5115547;27;20069;-76
2021/11/04 10:38:52;;;;;;;34.45;15.27;;;;;;;8.10;100.00;100104.03;5151146;27;20030;-76
2021/11/04 10:41:38;;;;;;;37.90;17.55;;;;;;;8.14;100.00;100102.72;5113750;27;20049;-76
2021/11/04 10:44:09;;;;;;;39.88;17.95;;;;;;;8.29;100.00;100101.09;5132178;27;20356;-76
2021/11/04 10:46:57;;;;;;;37.80;17.65;;;;;;;8.25;100.00;100089.94;5132413;27;20451;-76
2021/11/04 10:49:26;;;;;;;39.30;17.02;;;;;;;8.27;100.00;100087.13;5132375;27;20068;-76
2021/11/04 10:52:05;;;;;;;35.75;18.25;;;;;;;8.34;100.00;100085.47;5132254;27;20054;-75
2021/11/04 10:54:44;;;;;;;45.72;19.20;;;;;;;8.41;100.00;100086.50;5131978;27;20095;-75
2021/11/04 10:57:10;;;;;;;40.95;18.65;;;;;;;8.38;100.00;100081.50;5148906;27;20046;-75
2021/11/04 10:59:53;;;;;;;51.22;21.25;;;;;;;8.44;100.00;100078.19;5131638;27;20125;-76
2021/11/04 11:02:21;;;;;;;45.70;20.27;;;;;;;8.45;100.00;100063.06;5149697;27;20031;-76
2021/11/04 11:04:46;;;;;;;49.28;20.88;;;;;;;8.38;100.00;100052.25;5149013;27;20031;-76
2021/11/04 11:07:12;;;;;;;50.33;20.60;;;;;;;8.36;100.00;100051.56;5130583;27;20485;-77
2021/11/04 11:09:38;;;;;;;50.28;22.65;;;;;;;8.32;100.00;100050.22;5130742;27;20081;-76
2021/11/04 11:12:05;;;;;;;;;;;;;;;8.39;100.00;100056.56;5132009;27;20066;-76
2021/11/04 11:14:36;;;;;;;51.28;20.95;;;;;;;8.40;100.00;100047.59;5131720;27;19982;-75